createdAt,value
2023-01-26T00:01:21.752Z,96.67
2023-01-26T00:03:49.130Z,104.13
2023-01-26T00:06:18.633Z,107.33
2023-01-26T00:08:48.520Z,109.13
2023-01-26T00:11:19.028Z,99.77
2023-01-26T00:13:46.091Z,103.03
2023-01-26T00:16:23.712Z,97.50
2023-01-26T00:18:50.951Z,105.47
2023-01-26T00:21:20.616Z,108.07
2023-01-26T00:23:48.220Z,128.27
2023-01-26T00:26:21.116Z,99.63
2023-01-26T00:28:48.344Z,95.60
2023-01-26T00:31:17.594Z,104.10
2023-01-26T00:33:44.758Z,95.83
2023-01-26T00:36:12.444Z,95.87
2023-01-26T00:38:39.803Z,97.23
2023-01-26T00:41:06.703Z,113.20
2023-01-26T00:43:33.849Z,112.37
2023-01-26T00:46:00.737Z,107.27
2023-01-26T00:48:27.600Z,98.60
2023-01-26T00:50:54.444Z,104.80
2023-01-26T00:53:21.243Z,111.93
2023-01-26T00:55:48.030Z,102.47
2023-01-26T00:58:14.856Z,106.03
2023-01-26T01:00:41.839Z,108.67
2023-01-26T01:03:08.739Z,106.37
2023-01-26T01:05:35.681Z,101.23
2023-01-26T01:08:02.886Z,103.77
2023-01-26T01:10:30.441Z,111.60
2023-01-26T01:12:57.294Z,112.30
2023-01-26T01:15:25.228Z,113.73
2023-01-26T01:17:52.434Z,113.33
2023-01-26T01:20:19.800Z,108.80
2023-01-26T01:22:46.737Z,107.80
2023-01-26T01:25:13.622Z,102.37
2023-01-26T01:27:40.454Z,123.37
2023-01-26T01:30:08.434Z,102.30
2023-01-26T01:32:36.499Z,110.90
2023-01-26T01:35:04.096Z,108.33
2023-01-26T01:37:31.242Z,119.33
2023-01-26T01:39:58.130Z,113.30
2023-01-26T01:42:25.809Z,106.53
2023-01-26T01:45:26.430Z,109.90
2023-01-26T01:47:57.137Z,111.30
2023-01-26T01:50:25.868Z,95.00
2023-01-26T01:52:54.995Z,103.30
2023-01-26T01:55:22.561Z,107.87
2023-01-26T01:58:00.301Z,99.37
2023-01-26T02:00:27.539Z,107.53
2023-01-26T02:03:21.276Z,107.73
2023-01-26T02:05:54.450Z,104.07
2023-01-26T02:08:26.641Z,108.80
2023-01-26T02:10:55.992Z,102.23
2023-01-26T02:13:24.322Z,111.17
2023-01-26T02:15:52.216Z,104.63
2023-01-26T02:18:19.248Z,102.03
2023-01-26T02:21:15.251Z,104.47
2023-01-26T02:24:29.434Z,103.63
2023-01-26T02:26:56.527Z,101.33
2023-01-26T02:29:23.743Z,104.30
2023-01-26T02:31:50.754Z,98.97
2023-01-26T02:34:17.590Z,102.70
2023-01-26T02:36:44.410Z,102.03
2023-01-26T02:39:44.196Z,105.23
2023-01-26T02:42:29.845Z,98.00
2023-01-26T02:44:56.768Z,100.90
2023-01-26T02:47:23.607Z,93.67
2023-01-26T02:49:53.450Z,98.20
2023-01-26T02:52:23.240Z,100.70
2023-01-26T02:55:08.991Z,90.93
2023-01-26T02:57:35.982Z,99.07
2023-01-26T03:00:06.087Z,80.23
2023-01-26T03:02:33.020Z,90.13
2023-01-26T03:04:59.873Z,86.80
2023-01-26T03:07:26.720Z,87.43
2023-01-26T03:09:54.047Z,87.73
2023-01-26T03:12:20.905Z,85.33
2023-01-26T03:15:07.683Z,80.13
2023-01-26T03:17:34.476Z,82.87
2023-01-26T03:20:19.766Z,80.13
2023-01-26T03:23:05.321Z,74.83
2023-01-26T03:25:50.808Z,75.93
2023-01-26T03:28:22.411Z,74.83
2023-01-26T03:30:50.460Z,69.83
2023-01-26T03:33:18.452Z,67.73
2023-01-26T03:35:45.783Z,69.90
2023-01-26T03:38:13.032Z,66.07
2023-01-26T03:40:58.676Z,68.07
2023-01-26T03:43:44.396Z,67.43
2023-01-26T03:46:29.737Z,64.17
2023-01-26T03:49:15.282Z,66.87
2023-01-26T03:52:00.772Z,66.73
2023-01-26T03:54:46.399Z,65.70
2023-01-26T03:57:13.228Z,66.20
2023-01-26T03:59:40.108Z,70.53
2023-01-26T04:02:28.002Z,61.37
2023-01-26T04:05:13.727Z,59.03
2023-01-26T04:07:59.339Z,65.57
2023-01-26T04:10:26.825Z,57.73
2023-01-26T04:13:12.270Z,55.97
2023-01-26T04:15:57.715Z,63.77
2023-01-26T04:18:43.330Z,58.50
2023-01-26T04:21:29.046Z,55.73
2023-01-26T04:23:57.899Z,53.30
2023-01-26T04:26:27.039Z,54.63
2023-01-26T04:28:54.067Z,55.57
2023-01-26T04:31:20.950Z,51.53
2023-01-26T04:33:47.815Z,59.07
2023-01-26T04:36:14.632Z,56.63
2023-01-26T04:38:41.466Z,66.77
2023-01-26T04:41:08.372Z,77.80
2023-01-26T04:43:35.247Z,79.53
2023-01-26T04:46:04.734Z,72.17
2023-01-26T04:48:32.105Z,76.13
2023-01-26T04:51:02.688Z,73.67
2023-01-26T04:53:29.737Z,78.87
2023-01-26T04:55:56.644Z,80.63
2023-01-26T04:58:23.555Z,82.77
2023-01-26T05:00:55.040Z,82.90
2023-01-26T05:03:22.837Z,88.40
2023-01-26T05:05:52.047Z,86.43
2023-01-26T05:08:20.102Z,92.83
2023-01-26T05:10:47.488Z,88.60
2023-01-26T05:13:14.590Z,95.20
2023-01-26T05:15:41.467Z,93.70
2023-01-26T05:18:09.725Z,92.70
2023-01-26T05:20:36.623Z,90.43
2023-01-26T05:23:03.446Z,84.60
2023-01-26T05:25:30.440Z,85.13
2023-01-26T05:27:57.469Z,81.70
2023-01-26T05:30:24.360Z,87.67
2023-01-26T05:32:51.314Z,86.53
2023-01-26T05:35:18.199Z,82.77
2023-01-26T05:37:45.882Z,85.23
2023-01-26T05:40:13.505Z,88.77
2023-01-26T05:42:42.074Z,80.73
2023-01-26T05:45:09.319Z,84.53
2023-01-26T05:47:36.220Z,80.60
2023-01-26T05:50:03.448Z,75.87
2023-01-26T05:52:30.310Z,80.17
2023-01-26T05:54:57.312Z,79.13
2023-01-26T05:57:24.260Z,77.37
2023-01-26T05:59:51.175Z,74.13
2023-01-26T06:02:18.065Z,71.50
2023-01-26T06:04:44.925Z,73.17
2023-01-26T06:07:13.749Z,70.00
2023-01-26T06:09:41.163Z,64.17
2023-01-26T06:12:14.035Z,67.43
2023-01-26T06:14:40.848Z,65.00
2023-01-26T06:17:07.870Z,69.80
2023-01-26T06:19:36.114Z,67.77
2023-01-26T06:22:03.484Z,68.40
2023-01-26T06:24:30.629Z,66.00
2023-01-26T06:26:57.631Z,67.43
2023-01-26T06:29:24.471Z,67.97
2023-01-26T06:31:51.377Z,64.73
2023-01-26T06:34:18.218Z,61.87
2023-01-26T06:36:45.043Z,61.57
2023-01-26T06:39:12.831Z,64.23
2023-01-26T06:41:42.272Z,82.60
2023-01-26T06:44:09.128Z,75.93
2023-01-26T06:46:36.118Z,67.53
2023-01-26T06:49:03.839Z,67.20
2023-01-26T06:52:07.375Z,71.43
2023-01-26T06:54:34.190Z,73.33
2023-01-26T06:57:01.133Z,64.43
2023-01-26T06:59:27.964Z,60.97
2023-01-26T07:01:54.765Z,66.33
2023-01-26T07:04:25.489Z,66.77
2023-01-26T07:06:52.290Z,73.87
2023-01-26T07:09:19.111Z,86.37
2023-01-26T07:11:45.948Z,66.37
2023-01-26T07:14:12.867Z,75.97
2023-01-26T07:16:39.715Z,155.33
2023-01-26T07:19:06.567Z,168.53
2023-01-26T07:21:33.368Z,148.57
2023-01-26T07:24:00.230Z,147.90
2023-01-26T07:26:27.072Z,140.00
2023-01-26T07:28:54.092Z,106.17
2023-01-26T07:31:21.131Z,107.70
2023-01-26T07:33:48.046Z,100.87
2023-01-26T07:36:14.906Z,137.40
2023-01-26T07:38:41.773Z,129.93
2023-01-26T07:41:12.176Z,120.57
2023-01-26T07:43:39.845Z,77.43
2023-01-26T07:46:07.173Z,61.27
2023-01-26T07:48:34.511Z,67.03
2023-01-26T07:51:03.698Z,69.10
2023-01-26T07:53:34.219Z,65.87
2023-01-26T07:56:07.699Z,65.10
2023-01-26T07:58:35.685Z,230.27
2023-01-26T08:01:13.838Z,228.27
2023-01-26T08:03:41.978Z,122.97
2023-01-26T08:06:11.887Z,79.07
2023-01-26T08:08:41.698Z,68.83
2023-01-26T08:11:09.404Z,59.57
2023-01-26T08:13:36.440Z,70.53
2023-01-26T08:16:13.162Z,71.53
2023-01-26T08:18:42.137Z,68.17
2023-01-26T08:21:09.875Z,63.13
2023-01-26T08:23:36.882Z,66.20
2023-01-26T08:26:24.994Z,67.03
2023-01-26T08:28:51.813Z,74.23
2023-01-26T08:31:20.900Z,63.97
2023-01-26T08:33:54.455Z,58.67
2023-01-26T08:36:22.720Z,64.10
2023-01-26T08:38:50.543Z,68.83
2023-01-26T08:41:17.740Z,65.87
2023-01-26T08:43:44.740Z,63.77
2023-01-26T08:46:11.725Z,66.10
2023-01-26T08:48:38.832Z,61.53
2023-01-26T08:51:07.803Z,71.37
2023-01-26T08:53:36.384Z,58.40
2023-01-26T08:56:07.974Z,76.73
2023-01-26T08:58:35.656Z,96.83
2023-01-26T09:01:12.265Z,70.47
2023-01-26T09:03:39.300Z,65.47
2023-01-26T09:06:08.170Z,56.47
2023-01-26T09:08:35.089Z,48.00
2023-01-26T09:11:02.724Z,54.50
2023-01-26T09:13:29.564Z,81.33
2023-01-26T09:15:56.455Z,62.93
2023-01-26T09:18:23.288Z,56.60
2023-01-26T09:20:51.312Z,54.57
2023-01-26T09:23:18.371Z,69.67
2023-01-26T09:25:45.462Z,79.40
2023-01-26T09:28:12.488Z,90.10
2023-01-26T09:30:39.455Z,63.50
2023-01-26T09:33:07.110Z,57.70
2023-01-26T09:35:33.953Z,63.40
2023-01-26T09:38:00.819Z,57.70
2023-01-26T09:40:59.297Z,56.10
2023-01-26T09:43:46.202Z,65.57
2023-01-26T09:46:42.717Z,56.70
2023-01-26T09:49:13.413Z,59.50
2023-01-26T09:52:00.383Z,69.00
2023-01-26T09:54:33.602Z,62.47
2023-01-26T09:57:02.469Z,60.80
2023-01-26T09:59:44.571Z,77.73
2023-01-26T10:02:38.059Z,96.87
2023-01-26T10:05:33.917Z,101.27
2023-01-26T10:08:00.816Z,201.27
2023-01-26T10:10:32.399Z,73.10
2023-01-26T10:13:00.026Z,70.87
2023-01-26T10:15:30.407Z,73.17
2023-01-26T10:18:00.706Z,84.93
2023-01-26T10:20:34.407Z,85.30
2023-01-26T10:23:19.495Z,109.50
2023-01-26T10:25:51.071Z,83.57
2023-01-26T10:28:22.388Z,69.03
2023-01-26T10:30:51.420Z,80.17
2023-01-26T10:33:36.536Z,82.53
2023-01-26T10:36:06.732Z,68.57
2023-01-26T10:38:33.572Z,54.10
2023-01-26T10:41:06.011Z,58.30
2023-01-26T10:43:37.313Z,85.43
2023-01-26T10:46:04.816Z,70.70
2023-01-26T10:48:31.983Z,58.57
2023-01-26T10:51:16.174Z,74.77
2023-01-26T10:53:42.994Z,90.30
2023-01-26T10:56:14.984Z,137.00
2023-01-26T10:58:49.030Z,82.30
2023-01-26T11:01:18.842Z,66.37
2023-01-26T11:04:15.392Z,65.60
2023-01-26T11:06:42.471Z,80.97
2023-01-26T11:09:25.012Z,82.83
2023-01-26T11:12:04.735Z,108.40
2023-01-26T11:14:32.848Z,70.80
2023-01-26T11:17:19.921Z,83.73
2023-01-26T11:20:08.516Z,74.90
2023-01-26T11:23:04.254Z,69.30
2023-01-26T11:26:13.356Z,75.23
2023-01-26T11:29:04.914Z,71.23
2023-01-26T11:31:34.821Z,65.60
2023-01-26T11:34:10.595Z,66.20
2023-01-26T11:36:58.028Z,69.07
2023-01-26T11:39:46.561Z,54.47
2023-01-26T11:42:45.485Z,61.87
2023-01-26T11:45:31.120Z,56.53
2023-01-26T11:48:36.310Z,69.80
2023-01-26T11:51:25.147Z,53.27
2023-01-26T11:54:13.750Z,51.83
2023-01-26T11:56:59.902Z,88.07
2023-01-26T11:59:54.958Z,97.53
2023-01-26T12:02:31.442Z,74.93
2023-01-26T12:05:03.441Z,67.80
2023-01-26T12:07:59.612Z,77.43
2023-01-26T12:11:23.238Z,99.23
2023-01-26T12:14:08.572Z,83.63
2023-01-26T12:17:11.460Z,57.63
2023-01-26T12:20:05.819Z,46.63
2023-01-26T12:22:42.291Z,49.80
2023-01-26T12:25:29.225Z,60.97
2023-01-26T12:28:14.804Z,57.43
2023-01-26T12:30:41.670Z,48.73
2023-01-26T12:33:12.805Z,48.87
2023-01-26T12:35:57.722Z,50.10
2023-01-26T12:38:34.489Z,45.50
2023-01-26T12:41:13.467Z,44.73
2023-01-26T12:43:47.438Z,45.57
2023-01-26T12:46:15.656Z,55.70
2023-01-26T12:48:50.591Z,62.17
2023-01-26T12:51:33.238Z,47.20
2023-01-26T12:54:20.947Z,49.10
2023-01-26T12:56:52.911Z,48.83
2023-01-26T12:59:46.475Z,46.93
2023-01-26T13:02:31.908Z,45.33
2023-01-26T13:05:00.417Z,46.67
2023-01-26T13:07:37.966Z,47.20
2023-01-26T13:10:44.865Z,46.23
2023-01-26T13:13:17.616Z,48.40
2023-01-26T13:15:44.602Z,48.73
2023-01-26T13:18:17.370Z,49.93
2023-01-26T13:20:49.390Z,70.33
2023-01-26T13:23:41.093Z,52.23
2023-01-26T13:26:16.037Z,56.30
2023-01-26T13:28:43.636Z,55.57
2023-01-26T13:31:11.669Z,52.53
2023-01-26T13:33:41.052Z,48.50
2023-01-26T13:36:17.160Z,47.83
2023-01-26T13:38:50.520Z,46.70
2023-01-26T13:41:22.251Z,44.17
2023-01-26T13:43:54.664Z,48.77
2023-01-26T13:46:21.514Z,39.83
2023-01-26T13:48:49.638Z,47.07
2023-01-26T13:51:19.939Z,45.17
2023-01-26T13:54:11.980Z,45.07
2023-01-26T13:56:43.940Z,53.90
2023-01-26T13:59:16.855Z,60.27
2023-01-26T14:01:49.894Z,49.60
2023-01-26T14:04:22.721Z,44.83
2023-01-26T14:07:15.672Z,44.27
2023-01-26T14:09:51.320Z,45.47
2023-01-26T14:12:25.350Z,47.40
2023-01-26T14:14:56.758Z,45.30
2023-01-26T14:17:26.431Z,40.57
2023-01-26T14:19:53.294Z,48.97
2023-01-26T14:22:22.204Z,56.53
2023-01-26T14:24:51.167Z,56.23
2023-01-26T14:27:29.794Z,50.70
2023-01-26T14:29:57.864Z,47.87
2023-01-26T14:32:25.931Z,56.20
2023-01-26T14:34:54.744Z,48.50
2023-01-26T14:37:22.036Z,46.67
2023-01-26T14:39:48.996Z,47.47
2023-01-26T14:42:18.907Z,51.17
2023-01-26T14:44:46.375Z,53.60
2023-01-26T14:47:19.647Z,45.57
2023-01-26T14:50:03.452Z,49.87
2023-01-26T14:52:34.622Z,45.93
2023-01-26T14:55:12.450Z,43.87
2023-01-26T14:57:39.715Z,46.63
2023-01-26T15:00:10.389Z,44.13
2023-01-26T15:02:42.934Z,54.83
2023-01-26T15:05:19.042Z,53.50
2023-01-26T15:07:55.935Z,58.07
2023-01-26T15:10:35.114Z,60.33
2023-01-26T15:13:10.965Z,74.00
2023-01-26T15:15:40.851Z,82.43
2023-01-26T15:18:13.586Z,84.70
2023-01-26T15:20:45.645Z,76.87
2023-01-26T15:23:31.050Z,92.20
2023-01-26T15:26:30.804Z,86.43
2023-01-26T15:29:00.657Z,77.73
2023-01-26T15:31:39.937Z,76.77
2023-01-26T15:34:27.161Z,79.53
2023-01-26T15:36:54.151Z,74.07
2023-01-26T15:39:21.053Z,68.13
2023-01-26T15:42:12.946Z,67.90
2023-01-26T15:44:40.500Z,97.83
2023-01-26T15:47:12.232Z,76.07
2023-01-26T15:49:39.675Z,82.67
2023-01-26T15:52:17.299Z,70.10
2023-01-26T15:54:44.454Z,82.87
2023-01-26T15:57:14.409Z,79.17
2023-01-26T15:59:41.405Z,72.03
2023-01-26T16:02:19.397Z,76.33
2023-01-26T16:04:46.434Z,74.20
2023-01-26T16:07:18.673Z,73.53
2023-01-26T16:09:45.606Z,73.83
2023-01-26T16:12:30.440Z,73.07
2023-01-26T16:14:58.144Z,71.90
2023-01-26T16:17:24.994Z,71.03
2023-01-26T16:19:51.952Z,71.23
2023-01-26T16:22:18.865Z,79.03
2023-01-26T16:24:46.878Z,74.13
2023-01-26T16:27:13.733Z,105.63
2023-01-26T16:29:40.837Z,201.53
2023-01-26T16:32:31.561Z,107.13
2023-01-26T16:34:58.903Z,88.77
2023-01-26T16:37:25.730Z,104.10
2023-01-26T16:39:52.654Z,106.70
2023-01-26T16:42:21.582Z,90.67
2023-01-26T16:44:48.772Z,95.20
2023-01-26T16:47:15.783Z,81.07
2023-01-26T16:49:42.663Z,76.83
2023-01-26T16:52:10.198Z,65.10
2023-01-26T16:54:37.149Z,81.27
2023-01-26T16:57:04.176Z,73.90
2023-01-26T16:59:31.338Z,77.73
2023-01-26T17:01:58.592Z,77.40
2023-01-26T17:04:25.608Z,77.50
2023-01-26T17:06:52.462Z,80.20
2023-01-26T17:09:21.101Z,79.23
2023-01-26T17:11:47.949Z,87.00
2023-01-26T17:14:14.936Z,77.00
2023-01-26T17:16:41.957Z,76.23
2023-01-26T17:19:09.498Z,78.10
2023-01-26T17:21:36.611Z,81.43
2023-01-26T17:24:03.840Z,79.53
2023-01-26T17:26:30.821Z,70.30
2023-01-26T17:28:57.760Z,74.00
2023-01-26T17:31:25.688Z,83.73
2023-01-26T17:33:52.675Z,74.27
2023-01-26T17:36:20.401Z,77.80
2023-01-26T17:38:48.398Z,82.00
2023-01-26T17:41:16.341Z,80.37
2023-01-26T17:43:43.211Z,76.20
2023-01-26T17:46:15.199Z,76.93
2023-01-26T17:48:44.902Z,79.60
2023-01-26T17:51:17.682Z,79.83
2023-01-26T17:53:46.695Z,78.70
2023-01-26T17:56:16.236Z,83.60
2023-01-26T17:58:46.871Z,82.17
2023-01-26T18:01:13.745Z,79.67
2023-01-26T18:03:42.750Z,85.73
2023-01-26T18:06:10.553Z,81.27
2023-01-26T18:08:38.535Z,82.03
2023-01-26T18:11:08.396Z,90.23
2023-01-26T18:13:35.949Z,87.13
2023-01-26T18:16:06.612Z,87.67
2023-01-26T18:18:33.829Z,85.53
2023-01-26T18:21:25.072Z,95.47
2023-01-26T18:23:54.388Z,90.07
2023-01-26T18:26:23.391Z,92.00
2023-01-26T18:28:50.976Z,86.13
2023-01-26T18:31:24.853Z,84.73
2023-01-26T18:33:52.460Z,84.67
2023-01-26T18:36:21.354Z,82.30
2023-01-26T18:38:54.452Z,84.10
2023-01-26T18:41:23.138Z,93.50
2023-01-26T18:43:51.633Z,88.77
2023-01-26T18:46:19.056Z,92.07
2023-01-26T18:48:45.939Z,82.23
2023-01-26T18:51:13.246Z,86.43
2023-01-26T18:53:40.399Z,78.03
2023-01-26T18:56:10.199Z,88.87
2023-01-26T18:58:38.209Z,78.17
2023-01-26T19:01:09.608Z,86.60
2023-01-26T19:03:38.003Z,82.40
2023-01-26T19:06:06.314Z,87.87
2023-01-26T19:08:34.567Z,93.67
2023-01-26T19:11:08.635Z,84.17
2023-01-26T19:13:36.316Z,89.53
2023-01-26T19:16:03.481Z,89.00
2023-01-26T19:18:30.524Z,86.27
2023-01-26T19:21:02.248Z,86.20
2023-01-26T19:23:29.193Z,95.10
2023-01-26T19:25:56.447Z,96.93
2023-01-26T19:28:23.347Z,94.90
2023-01-26T19:30:50.421Z,96.97
2023-01-26T19:33:28.123Z,92.33
2023-01-26T19:35:56.455Z,87.40
2023-01-26T19:38:24.396Z,94.20
2023-01-26T19:40:52.279Z,98.37
2023-01-26T19:43:19.934Z,102.23
2023-01-26T19:45:53.178Z,93.20
2023-01-26T19:48:25.477Z,93.37
2023-01-26T19:51:08.632Z,91.07
2023-01-26T19:53:38.492Z,88.77
2023-01-26T19:56:10.501Z,95.83
2023-01-26T19:58:37.939Z,98.70
2023-01-26T20:01:07.776Z,90.33
2023-01-26T20:03:35.397Z,91.33
2023-01-26T20:06:03.226Z,89.07
2023-01-26T20:08:30.752Z,96.63
2023-01-26T20:11:08.536Z,127.07
2023-01-26T20:13:36.252Z,117.37
2023-01-26T20:16:04.831Z,110.43
2023-01-26T20:18:31.804Z,103.83
2023-01-26T20:21:00.939Z,104.90
2023-01-26T20:23:28.802Z,95.53
2023-01-26T20:26:04.764Z,96.50
2023-01-26T20:28:31.896Z,97.17
2023-01-26T20:31:08.596Z,96.63
2023-01-26T20:33:36.329Z,97.87
2023-01-26T20:36:08.684Z,99.10
2023-01-26T20:38:35.784Z,96.03
2023-01-26T20:41:15.181Z,95.87
2023-01-26T20:43:58.143Z,97.03
2023-01-26T20:46:26.838Z,89.97
2023-01-26T20:48:55.778Z,95.73
2023-01-26T20:51:25.246Z,98.20
2023-01-26T20:53:52.218Z,94.80
2023-01-26T20:56:21.865Z,89.20
2023-01-26T20:58:51.405Z,100.03
2023-01-26T21:01:19.098Z,109.53
2023-01-26T21:03:46.269Z,94.13
2023-01-26T21:06:16.105Z,98.60
2023-01-26T21:08:43.387Z,103.17
2023-01-26T21:11:12.868Z,97.70
2023-01-26T21:13:42.896Z,103.33
2023-01-26T21:16:12.538Z,98.00
2023-01-26T21:18:39.571Z,98.47
2023-01-26T21:21:08.525Z,98.17
2023-01-26T21:23:35.597Z,94.93
2023-01-26T21:26:05.642Z,92.07
2023-01-26T21:28:32.873Z,98.97
2023-01-26T21:31:04.428Z,99.20
2023-01-26T21:33:33.111Z,103.47
2023-01-26T21:36:02.397Z,98.90
2023-01-26T21:38:34.906Z,109.33
2023-01-26T21:41:25.646Z,113.03
2023-01-26T21:44:00.460Z,109.33
2023-01-26T21:46:29.033Z,108.37
2023-01-26T21:48:56.569Z,112.67
2023-01-26T21:51:42.704Z,108.27
2023-01-26T21:54:09.954Z,107.90
2023-01-26T21:56:37.312Z,105.50
2023-01-26T21:59:07.676Z,115.53
2023-01-26T22:01:40.357Z,113.37
2023-01-26T22:04:10.145Z,113.03
2023-01-26T22:06:37.640Z,119.27
2023-01-26T22:09:06.325Z,115.67
2023-01-26T22:11:33.331Z,122.23
2023-01-26T22:14:00.991Z,110.57
2023-01-26T22:16:29.173Z,110.50
2023-01-26T22:18:56.176Z,111.67
2023-01-26T22:21:23.195Z,111.43
2023-01-26T22:23:50.719Z,116.63
2023-01-26T22:26:20.379Z,118.63
2023-01-26T22:28:51.859Z,115.53
2023-01-26T22:31:20.149Z,115.30
2023-01-26T22:33:47.901Z,123.83
2023-01-26T22:36:15.065Z,114.27
2023-01-26T22:38:42.326Z,119.83
2023-01-26T22:41:19.598Z,119.67
2023-01-26T22:43:51.331Z,118.73
2023-01-26T22:46:20.344Z,121.97
2023-01-26T22:48:47.498Z,120.07
2023-01-26T22:51:22.702Z,125.90
2023-01-26T22:53:51.449Z,127.00
2023-01-26T22:56:19.240Z,123.73
2023-01-26T22:59:00.656Z,147.07
2023-01-26T23:01:32.980Z,125.80
2023-01-26T23:04:01.005Z,129.87
2023-01-26T23:06:28.001Z,129.30
2023-01-26T23:08:55.245Z,139.30
2023-01-26T23:11:27.698Z,129.33
2023-01-26T23:13:55.967Z,140.07
2023-01-26T23:16:24.006Z,132.13
2023-01-26T23:18:53.103Z,126.50
2023-01-26T23:21:20.322Z,132.17
2023-01-26T23:23:47.312Z,131.90
2023-01-26T23:26:14.301Z,132.70
2023-01-26T23:28:42.925Z,127.03
2023-01-26T23:31:11.658Z,126.67
2023-01-26T23:33:39.536Z,127.50
2023-01-26T23:36:08.121Z,125.07
2023-01-26T23:38:35.360Z,125.40
2023-01-26T23:41:02.903Z,136.30
2023-01-26T23:43:29.706Z,121.97
2023-01-26T23:45:56.982Z,121.87
2023-01-26T23:48:25.028Z,122.33
2023-01-26T23:50:56.485Z,117.73
2023-01-26T23:53:24.176Z,109.23
2023-01-26T23:55:51.150Z,125.17
2023-01-26T23:58:18.457Z,113.17
